Time;durP1;ratioP1;P1;durP2;ratioP2;P2;SDS_P1;SDS_P2;PMS_P1;PMS_P2;Temp;Humidity;BMP_temperature;BMP_pressure;BME280_temperature;BME280_humidity;BME280_pressure;Samples;Min_cycle;Max_cycle;Signal;HPM_P1;HPM_P2
2022/11/01 05:01:21;;;;;;;23.67;12.65;;;13.60;99.90;;;;;;5552774;23;20466;-67
2022/11/01 05:03:47;;;;;;;22.60;12.03;;;13.60;99.90;;;;;;5012965;28;20030;-67
2022/11/01 05:06:13;;;;;;;23.13;12.30;;;13.60;99.90;;;;;;5009026;28;20092;-67
2022/11/01 05:08:38;;;;;;;22.90;12.67;;;13.60;99.90;;;;;;5007498;28;20030;-67
2022/11/01 05:11:04;;;;;;;16.47;10.93;;;13.70;99.90;;;;;;4993488;28;20080;-67
2022/11/01 05:13:30;;;;;;;21.17;11.40;;;13.70;99.90;;;;;;4993490;28;20316;-67
2022/11/01 05:15:55;;;;;;;19.70;11.23;;;13.70;99.90;;;;;;4993802;28;20268;-69
2022/11/01 05:18:21;;;;;;;16.43;10.00;;;13.90;99.90;;;;;;4993429;28;20275;-69
2022/11/01 05:20:46;;;;;;;18.07;10.23;;;13.90;99.90;;;;;;4993168;28;20026;-69
2022/11/01 05:23:12;;;;;;;17.77;8.90;;;14.00;99.90;;;;;;4992773;28;20114;-71
2022/11/01 05:25:37;;;;;;;15.47;7.83;;;14.00;99.90;;;;;;4996245;28;20026;-72
2022/11/01 05:28:06;;;;;;;19.67;9.97;;;14.00;99.90;;;;;;4997139;28;20054;-72
2022/11/01 05:30:32;;;;;;;22.40;9.82;;;14.10;99.90;;;;;;4995604;28;20475;-72
2022/11/01 05:32:58;;;;;;;;;;;14.20;99.90;;;;;;4997331;28;20397;-72
2022/11/01 05:35:25;;;;;;;15.60;8.52;;;14.20;99.90;;;;;;4996782;28;19913;-72
2022/11/01 05:37:51;;;;;;;11.93;7.85;;;14.10;99.90;;;;;;5003997;28;20033;-71
2022/11/01 05:40:16;;;;;;;19.30;8.43;;;14.10;99.90;;;;;;5016408;28;20026;-72
2022/11/01 05:42:42;;;;;;;18.80;8.00;;;14.10;99.90;;;;;;5015140;28;20018;-71
2022/11/01 05:45:09;;;;;;;11.40;7.23;;;14.20;99.90;;;;;;5016514;28;20029;-71
2022/11/01 05:47:34;;;;;;;12.82;6.82;;;14.20;99.90;;;;;;5019010;28;20169;-71
2022/11/01 05:50:00;;;;;;;14.02;6.63;;;14.30;99.90;;;;;;5019007;28;20085;-71
2022/11/01 05:52:25;;;;;;;11.97;7.00;;;14.30;99.90;;;;;;5016305;28;20026;-70
2022/11/01 05:54:51;;;;;;;12.73;6.03;;;14.40;99.90;;;;;;5015326;28;20045;-71
2022/11/01 05:57:16;;;;;;;9.20;5.40;;;14.40;99.90;;;;;;5016400;28;20026;-71
2022/11/01 05:59:42;;;;;;;12.13;6.87;;;14.40;99.90;;;;;;5016088;28;20091;-71
2022/11/01 06:02:07;;;;;;;10.80;4.70;;;14.40;99.90;;;;;;5014393;28;20026;-70
2022/11/01 06:04:33;;;;;;;12.57;4.53;;;14.50;99.90;;;;;;5014290;28;20465;-71
2022/11/01 06:06:58;;;;;;;8.03;4.70;;;14.50;99.90;;;;;;5014226;28;20026;-70
2022/11/01 06:09:24;;;;;;;6.63;3.90;;;14.60;99.90;;;;;;5015324;28;20030;-71
2022/11/01 06:11:50;;;;;;;8.27;3.97;;;14.60;99.90;;;;;;5014251;28;20026;-71
2022/11/01 06:14:15;;;;;;;8.88;3.70;;;14.70;99.90;;;;;;5014280;28;20445;-71
2022/11/01 06:16:42;;;;;;;6.10;3.40;;;14.80;99.90;;;;;;5015658;28;20517;-71
2022/11/01 06:19:08;;;;;;;5.88;3.30;;;14.80;99.90;;;;;;5015580;28;20384;-66
2022/11/01 06:21:34;;;;;;;8.13;3.25;;;14.90;99.90;;;;;;5015433;28;20486;-66
2022/11/01 06:24:00;;;;;;;6.43;3.10;;;15.00;99.90;;;;;;5014014;28;20057;-68
2022/11/01 06:26:25;;;;;;;5.45;3.20;;;15.00;99.90;;;;;;5015452;28;20033;-67
2022/11/01 06:28:51;;;;;;;6.80;2.80;;;15.00;99.90;;;;;;5015260;28;20116;-67
2022/11/01 06:31:17;;;;;;;6.03;2.93;;;15.10;99.90;;;;;;5014033;28;20116;-67
2022/11/01 06:33:42;;;;;;;6.40;2.97;;;15.10;99.90;;;;;;5015272;28;20030;-67
2022/11/01 06:36:08;;;;;;;6.57;2.93;;;15.10;99.90;;;;;;5014399;28;20104;-67
2022/11/01 06:38:34;;;;;;;4.50;2.40;;;15.20;99.90;;;;;;5001731;28;20196;-67
2022/11/01 06:40:59;;;;;;;8.00;2.58;;;15.20;99.90;;;;;;4995689;28;20261;-67
2022/11/01 06:43:25;;;;;;;6.13;2.50;;;15.20;99.90;;;;;;4996701;28;20030;-66
2022/11/01 06:45:50;;;;;;;4.70;2.05;;;15.30;99.90;;;;;;5007412;28;20092;-69
2022/11/01 06:48:16;;;;;;;5.30;2.07;;;15.40;99.90;;;;;;5007712;28;20038;-69
2022/11/01 06:50:42;;;;;;;3.73;2.07;;;15.50;99.90;;;;;;5007000;28;20411;-70
2022/11/01 06:53:08;;;;;;;3.10;1.87;;;15.40;99.90;;;;;;5006296;28;20033;-69
2022/11/01 06:55:34;;;;;;;2.85;1.60;;;15.40;99.90;;;;;;5008598;28;20030;-68
2022/11/01 06:58:02;;;;;;;3.63;2.00;;;15.40;99.90;;;;;;5010133;28;20026;-69
2022/11/01 07:00:28;;;;;;;3.92;1.92;;;15.50;99.90;;;;;;5004799;28;20441;-69
2022/11/01 07:03:04;;;;;;;3.35;2.05;;;15.50;99.90;;;;;;5002567;28;20037;-69
2022/11/01 07:05:32;;;;;;;5.32;1.80;;;15.60;99.90;;;;;;5004285;28;20068;-69
2022/11/01 07:07:59;;;;;;;4.28;1.67;;;15.60;99.90;;;;;;5011114;28;20509;-69
2022/11/01 07:10:25;;;;;;;3.70;1.95;;;15.60;99.90;;;;;;4999712;28;20065;-70
2022/11/01 07:12:55;;;;;;;2.83;1.58;;;15.60;99.90;;;;;;5001593;28;20489;-69
2022/11/01 07:15:20;;;;;;;4.57;1.50;;;15.60;99.90;;;;;;5000965;28;20030;-71
2022/11/01 07:17:46;;;;;;;2.07;1.73;;;15.70;99.90;;;;;;5000164;28;20156;-69
2022/11/01 07:20:12;;;;;;;4.80;2.28;;;15.60;99.90;;;;;;5014789;28;20509;-68
2022/11/01 07:22:38;;;;;;;4.63;1.90;;;15.60;99.90;;;;;;5014368;28;20033;-71
2022/11/01 07:25:04;;;;;;;4.73;1.60;;;15.60;99.90;;;;;;5014231;28;20265;-70
2022/11/01 07:27:29;;;;;;;3.88;1.70;;;15.70;99.90;;;;;;5014190;28;20026;-69
2022/11/01 07:29:55;;;;;;;3.07;1.63;;;15.70;99.90;;;;;;5004952;28;20056;-71
2022/11/01 07:32:20;;;;;;;4.43;1.90;;;15.70;99.90;;;;;;5001694;28;20384;-69
2022/11/01 07:34:46;;;;;;;2.90;1.83;;;15.70;99.90;;;;;;5012791;28;20030;-71
2022/11/01 07:37:11;;;;;;;4.17;1.37;;;15.80;99.90;;;;;;5012953;28;20030;-71
2022/11/01 07:39:37;;;;;;;3.60;1.60;;;15.80;99.90;;;;;;5011904;28;20383;-70
2022/11/01 07:42:02;;;;;;;3.53;1.60;;;15.70;99.90;;;;;;5012557;28;20025;-69
2022/11/01 07:44:28;;;;;;;3.80;1.70;;;15.80;99.90;;;;;;5014182;28;20026;-70
2022/11/01 07:46:53;;;;;;;2.43;1.40;;;15.80;99.90;;;;;;5013415;28;20787;-70
2022/11/01 07:49:19;;;;;;;3.07;1.77;;;15.80;99.90;;;;;;5012522;28;20029;-72
2022/11/01 07:51:45;;;;;;;2.93;1.30;;;15.90;99.90;;;;;;5011393;28;20035;-71
2022/11/01 07:54:11;;;;;;;2.28;1.45;;;15.90;99.90;;;;;;5007876;28;20026;-70
2022/11/01 07:56:36;;;;;;;3.53;1.20;;;15.80;99.90;;;;;;5003125;28;20023;-71
2022/11/01 07:59:02;;;;;;;4.13;1.53;;;15.90;99.90;;;;;;5019053;28;20033;-66
2022/11/01 08:01:28;;;;;;;1.95;1.30;;;15.90;99.90;;;;;;5011973;28;20037;-70
2022/11/01 08:03:53;;;;;;;2.53;1.20;;;15.90;99.90;;;;;;5018928;28;20092;-70
2022/11/01 08:06:19;;;;;;;1.50;1.30;;;16.00;99.90;;;;;;5013615;28;20029;-68
2022/11/01 08:08:45;;;;;;;1.67;1.00;;;16.00;99.90;;;;;;5013095;28;20084;-71
2022/11/01 08:11:10;;;;;;;2.72;1.08;;;16.10;99.90;;;;;;5013467;28;20029;-70
2022/11/01 08:13:36;;;;;;;1.20;0.90;;;16.20;99.90;;;;;;5013349;28;20044;-70
2022/11/01 08:16:02;;;;;;;2.63;1.50;;;16.20;99.90;;;;;;5013354;28;20105;-69
2022/11/01 08:18:29;;;;;;;3.50;1.30;;;16.30;99.90;;;;;;5013801;28;20129;-71
2022/11/01 08:20:56;;;;;;;3.13;1.15;;;16.30;99.90;;;;;;5013596;28;20434;-70
2022/11/01 08:23:22;;;;;;;3.47;1.50;;;16.30;99.90;;;;;;5013444;28;20494;-71
2022/11/01 08:25:47;;;;;;;3.92;1.10;;;16.30;99.90;;;;;;5013477;28;20029;-71
2022/11/01 08:28:16;;;;;;;3.25;1.63;;;16.30;99.90;;;;;;5013854;28;20041;-71
2022/11/01 08:30:44;;;;;;;1.70;1.30;;;16.30;99.90;;;;;;5013901;28;20018;-71
2022/11/01 08:33:10;;;;;;;2.80;1.15;;;16.40;99.90;;;;;;5013594;28;20026;-71
2022/11/01 08:35:36;;;;;;;4.00;1.52;;;16.50;99.90;;;;;;5014365;28;20026;-71
2022/11/01 08:38:02;;;;;;;4.68;1.25;;;16.60;99.90;;;;;;5014454;28;20526;-71
2022/11/01 08:40:28;;;;;;;3.92;1.40;;;16.60;99.90;;;;;;5014372;28;20053;-69
2022/11/01 08:42:55;;;;;;;5.75;1.77;;;16.60;99.90;;;;;;5013449;28;20104;-71
2022/11/01 08:45:20;;;;;;;4.22;1.65;;;16.70;99.90;;;;;;5013210;28;20041;-71
2022/11/01 08:47:46;;;;;;;3.50;1.23;;;16.70;99.90;;;;;;5012930;28;20034;-71
2022/11/01 08:50:14;;;;;;;22.17;15.70;;;16.60;99.90;;;;;;5013133;28;20726;-71
2022/11/01 08:52:40;;;;;;;10.13;6.60;;;16.60;99.90;;;;;;5012129;28;20034;-71
2022/11/01 08:55:07;;;;;;;3.90;1.77;;;16.60;99.90;;;;;;5013439;28;20087;-71
2022/11/01 08:57:33;;;;;;;2.50;1.73;;;16.80;99.90;;;;;;5014074;28;20096;-70
2022/11/01 08:59:58;;;;;;;2.67;1.10;;;16.70;99.90;;;;;;5016178;28;20454;-72
2022/11/01 09:02:24;;;;;;;2.85;1.27;;;16.80;99.90;;;;;;5015408;28;20407;-71
2022/11/01 09:04:50;;;;;;;4.22;1.27;;;16.90;99.90;;;;;;5016990;28;20061;-70
2022/11/01 09:07:15;;;;;;;2.37;1.17;;;17.00;99.90;;;;;;5017067;28;20026;-70
2022/11/01 09:09:41;;;;;;;4.27;1.67;;;17.10;99.90;;;;;;5016810;28;20714;-70
2022/11/01 09:12:06;;;;;;;2.42;1.13;;;17.10;99.90;;;;;;5016786;28;20022;-70
2022/11/01 09:14:32;;;;;;;2.97;1.27;;;17.20;99.90;;;;;;5016918;28;20469;-70
2022/11/01 09:16:58;;;;;;;3.08;1.50;;;17.40;99.90;;;;;;5016549;28;20026;-69
2022/11/01 09:19:24;;;;;;;3.23;1.30;;;17.50;99.90;;;;;;5015454;28;20033;-69
2022/11/01 09:21:52;;;;;;;4.88;1.30;;;17.50;99.90;;;;;;5016551;28;20277;-70
2022/11/01 09:24:17;;;;;;;3.05;1.35;;;17.60;99.90;;;;;;5016650;28;20022;-73
2022/11/01 09:26:43;;;;;;;3.40;1.57;;;17.70;99.90;;;;;;5016093;28;20033;-72
2022/11/01 09:29:10;;;;;;;1.70;1.40;;;18.00;99.90;;;;;;5015274;28;20022;-72
2022/11/01 09:31:36;;;;;;;4.38;1.10;;;18.40;99.90;;;;;;5014883;28;20030;-73
2022/11/01 09:34:02;;;;;;;3.80;1.98;;;18.50;99.90;;;;;;5016535;28;20049;-73
2022/11/01 09:36:28;;;;;;;4.97;2.00;;;18.60;99.90;;;;;;5016966;28;20049;-73
2022/11/01 09:38:54;;;;;;;3.80;1.80;;;18.50;99.90;;;;;;5015284;28;20121;-73
2022/11/01 09:41:46;;;;;;;2.83;1.45;;;18.40;99.90;;;;;;5015261;28;20046;-73
2022/11/01 09:44:25;;;;;;;3.95;1.50;;;18.30;99.90;;;;;;5015588;28;20030;-73
2022/11/01 09:46:55;;;;;;;3.33;1.60;;;18.50;99.90;;;;;;5014989;28;20156;-69
2022/11/01 09:49:27;;;;;;;3.80;1.58;;;18.50;99.90;;;;;;5016519;28;20079;-71
2022/11/01 09:51:53;;;;;;;4.50;1.05;;;18.30;99.90;;;;;;5016370;28;20061;-70
2022/11/01 09:54:22;;;;;;;4.15;1.50;;;18.00;99.90;;;;;;5015268;28;20034;-70
2022/11/01 09:56:56;;;;;;;4.78;1.60;;;17.70;99.90;;;;;;5015457;28;20092;-67
2022/11/01 09:59:48;;;;;;;3.95;1.45;;;17.70;99.90;;;;;;5014482;28;20077;-69
2022/11/01 10:02:14;;;;;;;7.05;1.50;;;17.50;99.90;;;;;;5015490;28;20030;-68
2022/11/01 10:04:53;;;;;;;5.83;1.67;;;17.50;99.90;;;;;;5015010;28;20049;-67
2022/11/01 10:07:44;;;;;;;5.78;1.83;;;17.50;99.90;;;;;;5015127;28;20384;-70
2022/11/01 10:10:23;;;;;;;7.53;2.00;;;17.70;99.90;;;;;;5013866;28;20030;-67
2022/11/01 10:12:49;;;;;;;4.43;1.45;;;17.90;99.90;;;;;;5016047;28;20052;-68
2022/11/01 10:15:20;;;;;;;3.63;1.67;;;18.30;99.90;;;;;;5015960;28;20479;-68
2022/11/01 10:17:54;;;;;;;5.75;1.65;;;18.50;99.90;;;;;;5030184;28;20029;-69
2022/11/01 10:20:24;;;;;;;4.32;1.60;;;18.30;99.90;;;;;;5018399;28;20022;-67
2022/11/01 10:22:50;;;;;;;5.35;1.63;;;19.00;99.90;;;;;;5014533;28;20028;-67
2022/11/01 10:25:29;;;;;;;5.25;1.70;;;19.80;99.90;;;;;;5014600;28;20026;-69
2022/11/01 10:27:57;;;;;;;4.47;1.42;;;20.30;99.90;;;;;;5015779;28;20040;-70
2022/11/01 10:30:23;;;;;;;5.38;2.05;;;20.60;99.90;;;;;;5015564;28;20022;-68
2022/11/01 10:33:01;;;;;;;7.63;1.40;;;20.70;99.90;;;;;;5015777;28;20022;-68
2022/11/01 10:35:42;;;;;;;6.38;1.55;;;20.50;99.90;;;;;;5015668;28;20109;-68
2022/11/01 10:38:20;;;;;;;6.13;2.58;;;20.20;99.90;;;;;;5014270;28;20394;-68
2022/11/01 10:41:00;;;;;;;4.97;1.83;;;19.50;99.90;;;;;;5014579;28;20018;-68
2022/11/01 10:43:26;;;;;;;7.47;1.63;;;19.40;99.90;;;;;;5014361;28;20026;-68
2022/11/01 10:45:55;;;;;;;5.20;1.50;;;19.30;99.90;;;;;;5015192;28;20470;-66
2022/11/01 10:48:29;;;;;;;7.05;1.50;;;19.20;99.90;;;;;;5016286;28;20022;-68
2022/11/01 10:51:00;;;;;;;3.47;1.45;;;18.90;99.90;;;;;;5016890;28;20043;-69
2022/11/01 10:53:28;;;;;;;5.07;1.30;;;18.50;99.90;;;;;;5017967;28;20030;-70
2022/11/01 10:56:03;;;;;;;5.63;1.77;;;18.30;99.90;;;;;;5018927;28;20049;-71
2022/11/01 10:59:03;;;;;;;4.72;1.50;;;18.20;99.90;;;;;;5014250;28;20091;-70
2022/11/01 11:01:35;;;;;;;3.25;1.00;;;18.10;99.90;;;;;;4933472;29;20106;-71
2022/11/01 11:04:05;;;;;;;8.77;1.60;;;18.00;99.90;;;;;;4935557;29;20043;-70
2022/11/01 11:06:32;;;;;;;5.97;1.45;;;17.80;99.90;;;;;;4935617;29;20023;-70
2022/11/01 11:08:59;;;;;;;6.90;1.52;;;17.80;99.90;;;;;;4935738;29;20027;-71
2022/11/01 11:11:39;;;;;;;5.15;1.50;;;17.90;99.90;;;;;;4935439;29;20174;-70
2022/11/01 11:14:07;;;;;;;5.85;1.20;;;17.80;99.90;;;;;;4935211;29;20087;-68
2022/11/01 11:16:51;;;;;;;6.38;1.80;;;17.80;99.90;;;;;;4917688;29;20035;-68
2022/11/01 11:19:28;;;;;;;3.75;1.27;;;17.80;99.90;;;;;;4916576;29;20024;-67
2022/11/01 11:21:55;;;;;;;9.25;2.05;;;17.80;99.90;;;;;;4915913;29;20477;-68
2022/11/01 11:24:24;;;;;;;8.75;1.98;;;17.90;99.90;;;;;;4916264;29;20044;-68
2022/11/01 11:26:51;;;;;;;4.65;1.33;;;18.00;99.90;;;;;;4900323;29;20374;-67
2022/11/01 11:29:38;;;;;;;5.35;1.40;;;18.20;99.90;;;;;;4902053;29;20032;-68
2022/11/01 11:32:13;;;;;;;10.55;1.77;;;18.40;99.90;;;;;;4915922;29;20040;-69
2022/11/01 11:34:40;;;;;;;3.67;1.42;;;18.20;99.90;;;;;;4948370;23;20099;-68
2022/11/01 11:37:13;;;;;;;6.30;1.40;;;18.20;99.90;;;;;;5014596;28;20425;-67
2022/11/01 11:39:40;;;;;;;7.00;1.65;;;18.20;99.90;;;;;;5010092;28;20030;-67
2022/11/01 11:42:23;;;;;;;6.20;1.48;;;18.00;99.90;;;;;;4998943;28;20026;-67
2022/11/01 11:44:52;;;;;;;8.07;1.55;;;18.00;99.90;;;;;;5018269;28;20056;-67
2022/11/01 11:47:20;;;;;;;4.60;1.23;;;17.90;99.90;;;;;;5020960;28;20033;-67
2022/11/01 11:49:47;;;;;;;5.55;1.08;;;17.80;99.90;;;;;;5018927;28;20131;-71
2022/11/01 11:52:18;;;;;;;8.52;2.67;;;17.70;99.90;;;;;;5014611;28;20160;-66
2022/11/01 11:54:44;;;;;;;5.90;1.40;;;17.90;99.90;;;;;;5013058;28;20030;-68
2022/11/01 11:57:23;;;;;;;3.50;1.00;;;18.00;99.90;;;;;;5014253;28;20022;-70
2022/11/01 11:59:52;;;;;;;6.47;1.50;;;18.10;99.90;;;;;;5013938;28;20030;-69
2022/11/01 12:02:25;;;;;;;4.55;1.33;;;18.20;99.90;;;;;;5013575;28;20375;-70
2022/11/01 12:04:57;;;;;;;5.75;1.20;;;18.40;99.90;;;;;;4994062;28;20142;-69
2022/11/01 12:07:28;;;;;;;5.25;1.40;;;18.60;99.90;;;;;;4994375;28;20049;-68
2022/11/01 12:09:55;;;;;;;6.85;1.88;;;18.60;99.90;;;;;;4993161;28;20030;-69
2022/11/01 12:12:26;;;;;;;4.70;1.10;;;18.70;99.90;;;;;;4994254;28;20026;-67
2022/11/01 12:14:54;;;;;;;6.65;1.27;;;18.60;99.90;;;;;;5001591;28;20028;-68
2022/11/01 12:17:27;;;;;;;5.60;1.30;;;18.10;99.90;;;;;;5013912;28;20022;-70
2022/11/01 12:20:08;;;;;;;5.70;1.17;;;18.00;99.90;;;;;;5012641;28;20026;-69
2022/11/01 12:22:37;;;;;;;2.47;0.90;;;17.80;99.90;;;;;;5013888;28;20086;-66
2022/11/01 12:25:16;;;;;;;6.15;1.30;;;17.70;99.90;;;;;;5013685;28;20100;-64
2022/11/01 12:27:52;;;;;;;4.10;0.93;;;17.90;99.90;;;;;;5014370;28;20478;-65
2022/11/01 12:30:21;;;;;;;7.75;1.10;;;18.00;99.90;;;;;;5013277;28;20037;-65
2022/11/01 12:32:55;;;;;;;5.18;1.30;;;17.90;99.90;;;;;;5014383;28;20367;-65
2022/11/01 12:35:29;;;;;;;6.68;1.20;;;17.90;99.90;;;;;;5012172;28;20034;-65
2022/11/01 12:38:19;;;;;;;5.47;1.20;;;17.70;99.90;;;;;;5014060;28;20072;-64
2022/11/01 12:40:48;;;;;;;6.50;1.10;;;17.70;99.90;;;;;;5014158;28;20014;-65
2022/11/01 12:43:28;;;;;;;6.63;1.13;;;17.70;99.90;;;;;;5013812;28;20018;-67
2022/11/01 12:46:03;;;;;;;5.75;1.42;;;17.60;99.90;;;;;;5013837;28;20096;-68
2022/11/01 12:48:46;;;;;;;5.82;1.20;;;17.70;99.90;;;;;;5013648;28;20080;-66
2022/11/01 12:51:21;;;;;;;4.57;0.82;;;17.50;99.90;;;;;;5012170;28;20050;-67
2022/11/01 12:53:58;;;;;;;7.40;1.58;;;17.60;99.90;;;;;;5011917;28;20080;-67
2022/11/01 12:56:24;;;;;;;6.68;1.17;;;17.60;99.90;;;;;;5014375;28;20028;-65
2022/11/01 12:58:53;;;;;;;4.88;1.80;;;17.70;99.90;;;;;;5015398;28;20053;-66
2022/11/01 13:01:38;;;;;;;5.57;1.50;;;17.60;99.90;;;;;;5011747;28;20331;-67
2022/11/01 13:04:19;;;;;;;8.75;1.13;;;17.60;99.90;;;;;;5021625;28;20029;-70
2022/11/01 13:06:54;;;;;;;9.18;1.27;;;17.50;99.90;;;;;;5017801;28;20029;-70
2022/11/01 13:09:38;;;;;;;6.45;1.10;;;17.40;99.90;;;;;;5012791;28;20087;-74
2022/11/01 13:12:42;;;;;;;4.13;0.93;;;17.40;99.90;;;;;;5012024;28;20030;-72
2022/11/01 13:15:11;;;;;;;6.32;1.45;;;17.40;99.90;;;;;;5011633;28;20579;-69
2022/11/01 13:17:57;;;;;;;6.57;1.58;;;17.20;99.90;;;;;;5013803;28;20494;-69
2022/11/01 13:20:44;;;;;;;4.65;1.20;;;17.10;99.90;;;;;;5012973;28;20149;-69
2022/11/01 13:23:23;;;;;;;4.88;1.25;;;17.10;99.90;;;;;;5012332;28;20101;-70
2022/11/01 13:26:13;;;;;;;5.55;1.30;;;17.10;99.90;;;;;;5012285;28;20040;-69
2022/11/01 13:28:39;;;;;;;7.75;1.65;;;17.30;99.90;;;;;;5013504;28;20151;-68
2022/11/01 13:31:14;;;;;;;6.03;1.30;;;17.40;99.90;;;;;;5012838;28;20049;-70
2022/11/01 13:33:50;;;;;;;7.60;1.25;;;17.30;99.90;;;;;;5013847;28;20022;-68
2022/11/01 13:36:30;;;;;;;5.50;1.17;;;17.30;99.90;;;;;;5012781;28;20037;-69
2022/11/01 13:39:14;;;;;;;6.00;1.30;;;17.40;99.90;;;;;;5013958;28;20026;-70
2022/11/01 13:41:58;;;;;;;12.27;1.90;;;17.50;99.90;;;;;;5012305;28;20019;-70
2022/11/01 13:44:28;;;;;;;4.45;1.42;;;17.50;99.90;;;;;;5013819;28;20394;-69
2022/11/01 13:47:19;;;;;;;3.95;1.52;;;17.30;99.90;;;;;;5017126;28;20046;-68
2022/11/01 13:49:52;;;;;;;8.85;2.42;;;17.50;99.90;;;;;;5015630;28;20036;-69
2022/11/01 13:52:27;;;;;;;4.32;1.35;;;17.50;99.90;;;;;;5015763;28;20116;-68
2022/11/01 13:55:20;;;;;;;8.30;1.13;;;17.70;99.90;;;;;;5015120;28;20049;-69
2022/11/01 13:57:47;;;;;;;8.57;1.30;;;17.60;99.90;;;;;;5016871;28;20029;-69
2022/11/01 14:00:34;;;;;;;4.85;1.42;;;17.60;99.90;;;;;;5015573;28;20108;-69
2022/11/01 14:03:14;;;;;;;;;;;17.50;99.90;;;;;;5000769;28;20054;-69
2022/11/01 14:05:40;;;;;;;6.43;1.40;;;17.40;99.90;;;;;;4995936;28;19910;-69
2022/11/01 14:08:12;;;;;;;6.23;1.10;;;17.40;99.90;;;;;;5007920;28;20030;-68
2022/11/01 14:10:37;;;;;;;7.72;2.10;;;17.40;99.90;;;;;;5016886;28;20048;-68
2022/11/01 14:13:06;;;;;;;7.90;2.00;;;17.30;99.90;;;;;;5016922;28;20032;-68
2022/11/01 14:15:38;;;;;;;6.32;1.35;;;17.30;99.90;;;;;;5016171;28;20030;-68
2022/11/01 14:18:08;;;;;;;5.78;1.73;;;17.30;99.90;;;;;;5015168;28;20030;-69
2022/11/01 14:20:39;;;;;;;5.95;1.20;;;17.40;99.90;;;;;;5016178;28;20022;-69
2022/11/01 14:23:26;;;;;;;5.47;1.42;;;17.30;99.90;;;;;;5017470;28;20140;-69
2022/11/01 14:26:11;;;;;;;;;;;17.30;99.90;;;;;;4996219;28;20034;-70
2022/11/01 14:28:42;;;;;;;8.43;1.70;;;17.20;99.90;;;;;;5014928;28;19906;-69
2022/11/01 14:31:08;;;;;;;8.43;1.27;;;17.30;99.90;;;;;;5015366;28;20113;-67
2022/11/01 14:33:34;;;;;;;7.07;1.10;;;17.30;99.90;;;;;;5011278;28;20061;-70
2022/11/01 14:36:01;;;;;;;7.53;1.27;;;17.30;99.90;;;;;;5017323;28;20033;-69
2022/11/01 14:38:32;;;;;;;5.38;1.60;;;17.20;99.90;;;;;;5016800;28;20075;-69
2022/11/01 14:40:59;;;;;;;10.32;1.60;;;17.20;99.90;;;;;;5017478;28;20022;-69
2022/11/01 14:43:40;;;;;;;8.40;1.52;;;17.20;99.90;;;;;;5018577;28;20018;-68
2022/11/01 14:46:14;;;;;;;10.10;1.85;;;17.20;99.90;;;;;;5014068;28;20026;-68
2022/11/01 14:48:49;;;;;;;5.30;1.20;;;17.10;99.90;;;;;;4998820;28;20088;-67
2022/11/01 14:51:36;;;;;;;6.25;1.40;;;17.10;99.90;;;;;;5005215;28;20498;-69
2022/11/01 14:54:20;;;;;;;6.93;1.60;;;17.10;99.90;;;;;;5018784;28;20037;-68
2022/11/01 14:56:51;;;;;;;4.57;1.13;;;17.10;99.90;;;;;;5017664;28;20399;-69
2022/11/01 14:59:19;;;;;;;5.03;1.48;;;17.20;99.90;;;;;;5017264;28;20030;-68
2022/11/01 15:01:48;;;;;;;3.05;1.38;;;17.20;99.90;;;;;;5019173;28;20022;-68
2022/11/01 15:04:28;;;;;;;8.20;1.95;;;17.20;99.90;;;;;;5018496;28;20064;-68
2022/11/01 15:06:55;;;;;;;10.20;1.98;;;17.20;99.90;;;;;;4998805;28;20022;-68
2022/11/01 15:09:27;;;;;;;7.18;1.45;;;17.10;99.90;;;;;;4995880;28;20029;-68
2022/11/01 15:12:02;;;;;;;7.55;2.05;;;17.20;99.90;;;;;;4999778;28;20027;-68
2022/11/01 15:14:45;;;;;;;9.60;1.40;;;17.10;99.90;;;;;;5011326;28;20026;-69
2022/11/01 15:17:23;;;;;;;15.93;2.20;;;17.10;99.90;;;;;;5019213;28;20049;-69
2022/11/01 15:19:52;;;;;;;6.45;0.95;;;17.20;99.90;;;;;;5019198;28;20076;-68
2022/11/01 15:22:21;;;;;;;5.03;1.55;;;17.20;99.90;;;;;;5017745;28;20086;-67
2022/11/01 15:24:51;;;;;;;6.38;1.60;;;17.20;99.90;;;;;;5017094;28;20076;-68
2022/11/01 15:27:20;;;;;;;4.75;1.55;;;17.10;99.90;;;;;;5016723;28;20076;-67
2022/11/01 15:29:47;;;;;;;7.45;1.30;;;17.10;99.90;;;;;;5016246;28;20033;-63
2022/11/01 15:32:29;;;;;;;4.80;1.55;;;17.00;99.90;;;;;;5014752;28;20105;-63
2022/11/01 15:34:57;;;;;;;8.30;1.45;;;16.90;99.90;;;;;;5007983;28;20038;-68
2022/11/01 15:37:34;;;;;;;9.75;1.50;;;16.90;99.90;;;;;;5010435;28;20113;-70
2022/11/01 15:40:14;;;;;;;5.85;1.33;;;16.80;99.90;;;;;;5007538;28;20022;-68
2022/11/01 15:42:42;;;;;;;6.07;1.45;;;16.70;99.90;;;;;;5021934;28;20098;-68
2022/11/01 15:45:25;;;;;;;5.68;1.50;;;16.60;99.90;;;;;;5016246;28;20211;-68
2022/11/01 15:47:51;;;;;;;12.63;1.58;;;16.50;99.90;;;;;;5020368;28;20490;-71
2022/11/01 15:50:16;;;;;;;7.35;1.85;;;16.50;99.90;;;;;;5014395;28;20040;-70
2022/11/01 15:52:44;;;;;;;12.98;2.78;;;16.40;99.90;;;;;;5012997;28;20056;-71
2022/11/01 15:55:30;;;;;;;9.00;3.03;;;16.30;99.90;;;;;;5013526;28;20508;-69
2022/11/01 15:58:25;;;;;;;9.90;2.17;;;16.20;99.90;;;;;;5013894;28;20071;-70
2022/11/01 16:00:54;;;;;;;9.35;1.85;;;16.10;99.90;;;;;;5008242;28;20030;-70
2022/11/01 16:03:40;;;;;;;5.95;1.77;;;16.10;99.90;;;;;;5012110;28;20077;-71
2022/11/01 16:06:36;;;;;;;4.90;1.48;;;16.10;99.90;;;;;;5001076;28;20022;-69
2022/11/01 16:09:07;;;;;;;8.63;1.52;;;16.00;99.90;;;;;;4992057;28;20072;-71
2022/11/01 16:11:34;;;;;;;9.10;2.05;;;15.80;99.90;;;;;;4993380;28;20018;-68
2022/11/01 16:14:06;;;;;;;4.88;1.50;;;15.90;99.90;;;;;;4993527;28;20030;-69
2022/11/01 16:16:57;;;;;;;5.00;1.65;;;15.80;99.90;;;;;;4994590;28;20022;-68
2022/11/01 16:19:43;;;;;;;6.85;1.80;;;15.70;99.90;;;;;;4993322;28;20030;-66
2022/11/01 16:22:33;;;;;;;9.88;2.30;;;15.80;99.90;;;;;;4993554;28;20022;-69
2022/11/01 16:25:05;;;;;;;6.63;1.70;;;15.80;99.90;;;;;;4993309;28;20041;-65
2022/11/01 16:27:32;;;;;;;9.05;1.60;;;15.70;99.90;;;;;;4993948;28;20497;-67
2022/11/01 16:29:59;;;;;;;8.80;1.95;;;15.60;99.90;;;;;;5010661;28;20090;-67
2022/11/01 16:32:29;;;;;;;6.80;1.52;;;15.40;99.90;;;;;;5014380;28;20038;-65
2022/11/01 16:34:56;;;;;;;6.88;1.50;;;15.40;99.90;;;;;;5015376;28;20041;-65
2022/11/01 16:37:25;;;;;;;10.50;1.80;;;15.30;99.90;;;;;;5019790;28;20493;-63
2022/11/01 16:39:51;;;;;;;7.53;1.90;;;15.20;99.90;;;;;;5018048;28;20022;-70
2022/11/01 16:42:18;;;;;;;;;;;15.30;99.90;;;;;;5014632;28;20049;-69
2022/11/01 16:44:45;;;;;;;7.40;2.05;;;15.20;99.90;;;;;;5005650;28;19905;-69
2022/11/01 16:47:13;;;;;;;6.78;2.30;;;15.20;99.90;;;;;;5004897;28;20018;-69
2022/11/01 16:49:53;;;;;;;6.95;1.98;;;15.30;99.90;;;;;;5014224;28;20054;-67
2022/11/01 16:52:20;;;;;;;5.93;1.60;;;15.30;99.90;;;;;;5013573;28;20026;-67
2022/11/01 16:54:53;;;;;;;9.15;3.15;;;15.30;99.90;;;;;;5014509;28;20036;-68
2022/11/01 16:57:28;;;;;;;10.30;3.33;;;15.30;99.90;;;;;;5012919;28;20030;-67
2022/11/01 16:59:55;;;;;;;9.93;2.67;;;15.10;99.90;;;;;;5012691;28;20390;-69
2022/11/01 17:02:24;;;;;;;6.25;1.98;;;15.00;99.90;;;;;;5014165;28;20419;-71
2022/11/01 17:08:11;;;;;;;12.30;3.30;;;14.70;99.90;;;;;;5013999;28;20021;-67
2022/11/01 17:10:37;;;;;;;9.63;3.63;;;14.60;99.90;;;;;;5012358;28;20030;-69
2022/11/01 17:13:04;;;;;;;11.60;3.90;;;14.50;99.90;;;;;;5009087;28;20402;-69
2022/11/01 17:15:34;;;;;;;11.57;3.40;;;14.60;99.90;;;;;;4993154;28;20112;-67
2022/11/01 17:18:06;;;;;;;8.07;2.97;;;14.70;99.90;;;;;;4996065;28;20022;-66
2022/11/01 17:20:32;;;;;;;10.93;3.05;;;14.60;99.90;;;;;;5008041;28;20053;-66
2022/11/01 17:22:58;;;;;;;9.10;2.67;;;14.60;99.90;;;;;;4998042;28;20459;-67
2022/11/01 17:25:27;;;;;;;11.25;2.63;;;14.60;99.90;;;;;;5004692;28;20038;-66
2022/11/01 17:27:53;;;;;;;10.00;2.75;;;14.50;99.90;;;;;;5008195;28;20398;-68
2022/11/01 17:30:19;;;;;;;;;;;14.60;99.90;;;;;;5012823;28;20038;-68
2022/11/01 17:32:45;;;;;;;9.18;2.30;;;14.50;99.90;;;;;;5015899;28;19906;-67
2022/11/01 17:35:11;;;;;;;9.15;2.58;;;14.40;99.90;;;;;;5039928;23;20402;-70
2022/11/01 17:37:41;;;;;;;11.13;2.53;;;14.50;99.90;;;;;;5021853;28;20037;-67
2022/11/01 17:40:21;;;;;;;9.02;2.38;;;14.50;99.90;;;;;;5016213;28;20029;-68
2022/11/01 17:42:47;;;;;;;13.10;2.67;;;14.50;99.90;;;;;;5000522;28;20030;-69
2022/11/01 17:45:12;;;;;;;9.67;2.50;;;14.40;99.90;;;;;;4998011;28;20441;-67
2022/11/01 17:47:39;;;;;;;11.70;3.30;;;14.40;99.90;;;;;;5006843;28;20072;-68
2022/11/01 17:50:05;;;;;;;10.18;2.30;;;14.30;99.90;;;;;;5015593;28;20053;-68
2022/11/01 17:52:31;;;;;;;6.60;2.28;;;14.30;99.90;;;;;;5016888;28;20486;-67
2022/11/01 17:54:56;;;;;;;12.80;2.47;;;14.30;99.90;;;;;;5018606;28;20041;-67
2022/11/01 17:57:22;;;;;;;11.37;2.40;;;14.20;99.90;;;;;;5018527;28;20432;-69
2022/11/01 17:59:47;;;;;;;12.27;2.90;;;14.20;99.90;;;;;;5019654;28;20029;-68
2022/11/01 18:02:13;;;;;;;10.83;2.90;;;14.20;99.90;;;;;;5020944;28;20022;-68
2022/11/01 18:04:38;;;;;;;7.27;2.23;;;14.20;99.90;;;;;;5021546;28;20130;-69
2022/11/01 18:07:07;;;;;;;9.27;3.50;;;14.20;99.90;;;;;;5021093;28;20406;-69